Time;durP1;ratioP1;P1;durP2;ratioP2;P2;SDS_P1;SDS_P2;PMS_P1;PMS_P2;Temp;Humidity;BMP_temperature;BMP_pressure;BME280_temperature;BME280_humidity;BME280_pressure;Samples;Min_cycle;Max_cycle;Signal;HPM_P1;HPM_P2
2022/01/29 00:01:50;;;;;;;16.50;7.35;;;;;;;;;;6198537;28;20052;-81
2022/01/29 00:04:52;;;;;;;17.17;7.47;;;;;;;;;;6194379;28;20053;-82
2022/01/29 00:07:53;;;;;;;15.45;7.78;;;;;;;;;;6190353;28;20035;-81
2022/01/29 00:11:02;;;;;;;16.77;6.80;;;;;;;;;;6191869;28;20716;-82
2022/01/29 00:14:05;;;;;;;20.65;7.70;;;;;;;;;;6191453;28;20047;-81
2022/01/29 00:17:07;;;;;;;17.45;7.78;;;;;;;;;;6214867;28;20042;-82
2022/01/29 00:20:09;;;;;;;21.08;7.55;;;;;;;;;;6217056;28;20052;-81
2022/01/29 00:23:11;;;;;;;14.63;7.22;;;;;;;;;;6198164;28;20048;-81
2022/01/29 00:26:13;;;;;;;17.30;7.25;;;;;;;;;;6216881;28;20176;-81
2022/01/29 00:29:19;;;;;;;16.77;7.45;;;;;;;;;;6215680;28;20136;-81
2022/01/29 00:32:21;;;;;;;16.45;6.60;;;;;;;;;;6211241;28;20682;-81
2022/01/29 00:35:23;;;;;;;17.92;6.90;;;;;;;;;;6216952;28;20124;-82
2022/01/29 00:38:24;;;;;;;16.38;7.03;;;;;;;;;;6214164;28;20048;-81
2022/01/29 00:41:26;;;;;;;17.65;7.00;;;;;;;;;;6217214;28;20048;-81
2022/01/29 00:44:31;;;;;;;13.27;6.03;;;;;;;;;;6214106;28;20065;-82
2022/01/29 00:47:33;;;;;;;18.10;7.03;;;;;;;;;;6193426;28;20492;-82
2022/01/29 00:50:34;;;;;;;18.83;6.68;;;;;;;;;;6192522;28;20057;-82
2022/01/29 00:53:36;;;;;;;14.25;5.97;;;;;;;;;;6190337;28;20066;-82
2022/01/29 00:56:39;;;;;;;13.55;6.38;;;;;;;;;;6167921;28;20516;-82
2022/01/29 00:59:41;;;;;;;15.27;6.50;;;;;;;;;;6170211;28;20172;-82
2022/01/29 01:02:42;;;;;;;18.50;7.07;;;;;;;;;;6192233;28;20042;-82
2022/01/29 01:05:44;;;;;;;16.33;6.43;;;;;;;;;;6191327;28;20050;-81
2022/01/29 01:08:46;;;;;;;14.10;6.35;;;;;;;;;;6188554;28;20046;-80
2022/01/29 01:11:47;;;;;;;15.32;6.40;;;;;;;;;;6185215;28;20038;-79
2022/01/29 01:14:49;;;;;;;16.20;6.30;;;;;;;;;;6189065;28;20057;-82
2022/01/29 01:17:51;;;;;;;14.80;6.57;;;;;;;;;;6189683;28;20047;-82
2022/01/29 01:20:53;;;;;;;14.95;6.55;;;;;;;;;;6191239;28;20050;-80
2022/01/29 01:23:55;;;;;;;16.23;6.05;;;;;;;;;;6187955;28;20330;-80
2022/01/29 01:26:56;;;;;;;14.77;6.13;;;;;;;;;;6190536;28;20412;-81
2022/01/29 01:29:58;;;;;;;13.15;6.30;;;;;;;;;;6194644;28;20050;-81
2022/01/29 01:33:02;;;;;;;15.73;6.50;;;;;;;;;;6215675;28;20050;-83
2022/01/29 01:36:06;;;;;;;14.07;6.10;;;;;;;;;;6216011;28;20042;-81
2022/01/29 01:39:11;;;;;;;17.38;6.22;;;;;;;;;;6208708;28;20414;-82
2022/01/29 01:42:12;;;;;;;13.77;5.85;;;;;;;;;;6188973;28;20046;-81
2022/01/29 01:45:14;;;;;;;15.00;4.80;;;;;;;;;;6195177;28;20056;-82
2022/01/29 01:48:16;;;;;;;15.25;5.85;;;;;;;;;;6215443;28;20038;-82
2022/01/29 01:51:18;;;;;;;14.50;5.70;;;;;;;;;;6216043;28;20049;-81
2022/01/29 01:54:20;;;;;;;16.25;5.85;;;;;;;;;;6218315;28;20260;-82
2022/01/29 01:57:22;;;;;;;13.35;5.45;;;;;;;;;;6220187;28;20034;-82
2022/01/29 02:00:25;;;;;;;15.85;5.88;;;;;;;;;;6217928;28;20077;-81
2022/01/29 02:03:27;;;;;;;12.43;5.32;;;;;;;;;;6219839;28;20091;-82
2022/01/29 02:06:29;;;;;;;14.60;5.25;;;;;;;;;;6219289;28;20522;-82
2022/01/29 02:09:32;;;;;;;17.25;6.60;;;;;;;;;;6193941;28;20049;-82
2022/01/29 02:12:50;;;;;;;12.52;5.43;;;;;;;;;;6167753;28;20152;-81
2022/01/29 02:15:52;;;;;;;15.77;5.57;;;;;;;;;;6182592;28;20064;-80
2022/01/29 02:18:54;;;;;;;11.65;5.40;;;;;;;;;;6192579;28;20508;-81
2022/01/29 02:21:56;;;;;;;12.05;5.45;;;;;;;;;;6194278;28;20034;-81
2022/01/29 02:24:58;;;;;;;13.73;5.47;;;;;;;;;;6202349;28;20515;-82
2022/01/29 02:28:10;;;;;;;12.82;5.35;;;;;;;;;;6219047;28;20046;-82
2022/01/29 02:31:11;;;;;;;12.95;5.80;;;;;;;;;;6201869;28;20104;-82
2022/01/29 02:34:14;;;;;;;19.23;5.70;;;;;;;;;;6195343;28;20074;-81
2022/01/29 02:37:16;;;;;;;15.38;5.55;;;;;;;;;;6189021;28;20117;-82
2022/01/29 02:40:24;;;;;;;19.33;6.60;;;;;;;;;;6190582;28;20042;-81
2022/01/29 02:43:32;;;;;;;17.17;6.72;;;;;;;;;;6197686;28;20042;-81
2022/01/29 02:49:45;;;;;;;13.95;5.43;;;;;;;;;;6217549;28;20101;-80
2022/01/29 02:52:46;;;;;;;14.25;5.93;;;;;;;;;;6213879;28;20038;-82
2022/01/29 02:55:48;;;;;;;12.40;5.80;;;;;;;;;;6202552;28;20093;-81
2022/01/29 02:58:51;;;;;;;14.32;5.60;;;;;;;;;;6192114;28;20088;-82
2022/01/29 03:01:52;;;;;;;16.80;5.93;;;;;;;;;;6192044;28;20116;-81
2022/01/29 03:04:56;;;;;;;19.25;6.25;;;;;;;;;;6193482;28;20045;-81
2022/01/29 03:07:58;;;;;;;16.50;6.38;;;;;;;;;;6194421;28;20052;-81
2022/01/29 03:10:59;;;;;;;15.98;5.90;;;;;;;;;;6210068;28;20038;-81
2022/01/29 03:14:01;;;;;;;16.65;6.30;;;;;;;;;;6214788;28;20506;-81
2022/01/29 03:17:03;;;;;;;13.32;5.80;;;;;;;;;;6193309;28;20434;-82
2022/01/29 03:20:05;;;;;;;15.38;6.28;;;;;;;;;;6189503;28;20050;-80
2022/01/29 03:23:06;;;;;;;14.70;6.28;;;;;;;;;;6219797;28;20443;-81
2022/01/29 03:26:08;;;;;;;17.55;6.78;;;;;;;;;;6217473;28;20500;-81
2022/01/29 03:29:10;;;;;;;19.08;6.63;;;;;;;;;;6220515;28;20049;-80
2022/01/29 03:32:12;;;;;;;18.83;7.05;;;;;;;;;;6218617;28;20041;-81
2022/01/29 03:35:16;;;;;;;16.88;5.75;;;;;;;;;;6220240;28;20411;-79
2022/01/29 03:38:18;;;;;;;19.50;6.82;;;;;;;;;;6201520;28;20414;-81
2022/01/29 03:41:19;;;;;;;17.65;6.95;;;;;;;;;;6194065;28;20392;-81
2022/01/29 03:44:21;;;;;;;20.05;7.57;;;;;;;;;;6209088;28;20042;-79
2022/01/29 03:47:23;;;;;;;15.85;6.32;;;;;;;;;;6220675;28;20466;-80
2022/01/29 03:50:24;;;;;;;17.08;6.65;;;;;;;;;;6229653;28;20083;-82
2022/01/29 03:53:26;;;;;;;16.98;6.57;;;;;;;;;;6241392;28;20045;-81
2022/01/29 03:56:28;;;;;;;16.73;6.50;;;;;;;;;;6241463;28;20104;-81
2022/01/29 03:59:29;;;;;;;19.05;6.80;;;;;;;;;;6215466;28;20148;-80
2022/01/29 04:02:31;;;;;;;18.85;6.28;;;;;;;;;;6209612;28;20049;-81
2022/01/29 04:05:33;;;;;;;15.90;6.07;;;;;;;;;;6210520;28;20050;-81
2022/01/29 04:08:40;;;;;;;16.38;6.43;;;;;;;;;;6213034;28;20056;-82
2022/01/29 04:11:42;;;;;;;15.32;6.15;;;;;;;;;;6193344;28;20046;-83
2022/01/29 04:14:43;;;;;;;17.35;6.80;;;;;;;;;;6210775;28;20042;-83
2022/01/29 04:17:45;;;;;;;15.23;6.00;;;;;;;;;;6220811;28;20113;-78
2022/01/29 04:20:47;;;;;;;16.73;6.82;;;;;;;;;;6232758;28;20047;-84
2022/01/29 04:23:48;;;;;;;19.35;6.38;;;;;;;;;;6241399;28;20033;-83
2022/01/29 04:26:50;;;;;;;17.63;5.88;;;;;;;;;;6241770;28;20150;-83
2022/01/29 04:29:54;;;;;;;12.98;6.20;;;;;;;;;;6236749;28;20545;-82
2022/01/29 04:33:15;;;;;;;17.88;6.78;;;;;;;;;;6193865;28;20069;-83
2022/01/29 04:36:16;;;;;;;18.88;6.43;;;;;;;;;;6210720;28;20100;-82
2022/01/29 04:39:18;;;;;;;15.73;6.43;;;;;;;;;;6203655;28;20125;-83
2022/01/29 04:42:19;;;;;;;16.42;5.75;;;;;;;;;;6182668;28;20046;-83
2022/01/29 04:45:21;;;;;;;17.20;6.47;;;;;;;;;;6210193;28;20125;-83
2022/01/29 04:48:23;;;;;;;15.23;6.05;;;;;;;;;;6196981;28;20170;-83
2022/01/29 04:51:24;;;;;;;20.33;7.10;;;;;;;;;;6193718;28;20121;-82
2022/01/29 04:54:26;;;;;;;14.63;5.50;;;;;;;;;;6203439;28;20053;-82
2022/01/29 04:57:28;;;;;;;15.70;6.03;;;;;;;;;;6220935;28;20056;-83
2022/01/29 05:00:29;;;;;;;13.40;5.47;;;;;;;;;;6214766;28;20040;-83
2022/01/29 05:03:31;;;;;;;16.33;6.03;;;;;;;;;;6219465;28;20176;-82
2022/01/29 05:06:33;;;;;;;18.23;6.10;;;;;;;;;;6189363;28;20501;-83
2022/01/29 05:09:35;;;;;;;16.23;5.97;;;;;;;;;;6189667;28;20046;-83
2022/01/29 05:15:59;;;;;;;17.15;6.75;;;;;;;;;;6195745;28;20042;-83
2022/01/29 05:29:02;;;;;;;11.98;5.50;;;;;;;;;;6190510;28;20109;-82
2022/01/29 05:32:07;;;;;;;13.80;4.90;;;;;;;;;;6218539;28;20165;-82
2022/01/29 05:35:09;;;;;;;11.10;5.38;;;;;;;;;;6233953;28;20046;-81
2022/01/29 05:38:14;;;;;;;12.70;5.57;;;;;;;;;;6220788;28;20327;-83
2022/01/29 05:41:16;;;;;;;12.60;5.45;;;;;;;;;;6191243;28;20045;-80
2022/01/29 05:44:17;;;;;;;15.90;6.13;;;;;;;;;;6193746;28;20039;-81
2022/01/29 05:47:19;;;;;;;13.32;5.55;;;;;;;;;;6202242;28;20043;-80
2022/01/29 05:50:20;;;;;;;13.88;5.20;;;;;;;;;;6194064;28;20046;-81
2022/01/29 05:53:22;;;;;;;13.23;5.28;;;;;;;;;;6195059;28;20086;-81
2022/01/29 05:56:24;;;;;;;15.57;5.80;;;;;;;;;;6184978;28;20045;-82
2022/01/29 05:59:26;;;;;;;13.47;5.33;;;;;;;;;;6173112;28;20046;-82
2022/01/29 06:02:28;;;;;;;13.07;5.63;;;;;;;;;;6216670;28;20216;-81
2022/01/29 06:05:30;;;;;;;10.50;4.55;;;;;;;;;;6217243;28;20049;-82
2022/01/29 06:08:32;;;;;;;12.07;4.75;;;;;;;;;;6217553;28;20048;-82
2022/01/29 06:11:33;;;;;;;13.00;4.68;;;;;;;;;;6193850;28;20096;-81
2022/01/29 06:14:35;;;;;;;10.23;4.60;;;;;;;;;;6195600;28;20137;-84
2022/01/29 06:17:38;;;;;;;8.48;4.18;;;;;;;;;;6219634;28;20056;-84
2022/01/29 06:20:41;;;;;;;9.05;3.83;;;;;;;;;;6202392;28;20106;-83
2022/01/29 06:23:43;;;;;;;10.90;4.47;;;;;;;;;;6193737;28;20057;-83
2022/01/29 06:26:45;;;;;;;11.23;4.07;;;;;;;;;;6212050;28;20041;-83
2022/01/29 06:29:47;;;;;;;7.93;4.07;;;;;;;;;;6207675;28;20044;-84
2022/01/29 06:32:48;;;;;;;6.47;3.40;;;;;;;;;;6192233;28;20135;-83
2022/01/29 06:35:50;;;;;;;9.50;3.63;;;;;;;;;;6206696;28;20081;-84
2022/01/29 06:38:52;;;;;;;10.55;3.17;;;;;;;;;;6226307;28;20066;-81
2022/01/29 06:41:56;;;;;;;5.53;3.17;;;;;;;;;;6202759;28;20048;-84
2022/01/29 06:44:57;;;;;;;7.68;3.65;;;;;;;;;;6194321;28;20107;-83
2022/01/29 06:47:59;;;;;;;7.25;3.42;;;;;;;;;;6201028;28;20054;-83
2022/01/29 06:51:01;;;;;;;7.05;3.13;;;;;;;;;;6200670;28;20177;-83
2022/01/29 06:54:02;;;;;;;7.45;2.85;;;;;;;;;;6203075;28;20126;-84
2022/01/29 06:57:04;;;;;;;5.93;2.70;;;;;;;;;;6227254;28;20049;-82
2022/01/29 07:00:07;;;;;;;6.28;2.72;;;;;;;;;;6226222;28;20574;-83
2022/01/29 07:03:09;;;;;;;8.13;3.10;;;;;;;;;;6225825;28;20042;-83
2022/01/29 07:06:11;;;;;;;6.95;2.60;;;;;;;;;;6224546;28;20049;-83
2022/01/29 07:09:12;;;;;;;5.13;2.55;;;;;;;;;;6241503;28;20059;-82
2022/01/29 07:12:14;;;;;;;6.20;2.97;;;;;;;;;;6250261;28;20061;-83
2022/01/29 07:15:16;;;;;;;5.70;2.80;;;;;;;;;;6249375;28;20084;-82
2022/01/29 07:18:17;;;;;;;5.18;3.22;;;;;;;;;;6232576;28;20110;-82
2022/01/29 07:21:19;;;;;;;5.53;2.75;;;;;;;;;;6193098;28;20130;-83
2022/01/29 07:24:20;;;;;;;5.40;2.83;;;;;;;;;;6191742;28;20121;-82
2022/01/29 07:27:22;;;;;;;4.60;2.70;;;;;;;;;;6231476;28;20125;-82
2022/01/29 07:30:25;;;;;;;5.07;2.50;;;;;;;;;;6232426;28;20503;-81
2022/01/29 07:33:27;;;;;;;7.75;2.92;;;;;;;;;;6233397;28;20058;-80
2022/01/29 07:36:29;;;;;;;5.22;3.00;;;;;;;;;;6239899;28;20390;-81
2022/01/29 07:39:31;;;;;;;5.25;2.67;;;;;;;;;;6221954;28;20037;-82
2022/01/29 07:42:33;;;;;;;5.65;2.95;;;;;;;;;;6209614;28;20046;-81
2022/01/29 07:45:34;;;;;;;5.68;3.28;;;;;;;;;;6207620;28;20731;-81
2022/01/29 07:48:36;;;;;;;4.88;2.58;;;;;;;;;;6209740;28;20081;-80
2022/01/29 07:51:39;;;;;;;6.05;3.10;;;;;;;;;;6200742;28;20038;-80
2022/01/29 07:54:40;;;;;;;6.20;3.40;;;;;;;;;;6211426;28;20113;-82
2022/01/29 07:57:42;;;;;;;5.65;2.90;;;;;;;;;;6203622;28;20519;-83
2022/01/29 08:00:43;;;;;;;5.13;2.15;;;;;;;;;;6184763;28;20053;-81
2022/01/29 08:03:50;;;;;;;5.20;2.58;;;;;;;;;;6193204;28;20516;-83
2022/01/29 08:06:52;;;;;;;5.10;2.40;;;;;;;;;;6194668;28;20046;-83
2022/01/29 08:09:54;;;;;;;5.25;2.70;;;;;;;;;;6197039;28;20093;-83
2022/01/29 08:12:55;;;;;;;5.97;2.40;;;;;;;;;;6196959;28;20380;-81
2022/01/29 08:15:57;;;;;;;5.25;2.38;;;;;;;;;;6200175;28;20068;-82
2022/01/29 08:18:59;;;;;;;4.00;2.35;;;;;;;;;;6211776;28;20054;-83
2022/01/29 08:22:00;;;;;;;5.63;2.67;;;;;;;;;;6216915;28;20109;-81
2022/01/29 08:25:02;;;;;;;2.67;1.90;;;;;;;;;;6196011;28;20058;-81
2022/01/29 08:28:05;;;;;;;4.38;2.38;;;;;;;;;;6197007;28;20048;-81
2022/01/29 08:31:07;;;;;;;4.40;2.45;;;;;;;;;;6224964;28;20173;-82
2022/01/29 08:34:09;;;;;;;3.58;2.35;;;;;;;;;;6216815;28;20180;-83
2022/01/29 08:37:10;;;;;;;4.05;2.28;;;;;;;;;;6219605;28;20056;-82
2022/01/29 08:40:13;;;;;;;4.15;2.33;;;;;;;;;;6205250;28;20042;-82
2022/01/29 08:43:14;;;;;;;5.38;2.80;;;;;;;;;;6194947;28;20136;-80
2022/01/29 08:46:16;;;;;;;4.95;2.60;;;;;;;;;;6195411;28;20053;-81
2022/01/29 08:49:18;;;;;;;3.20;2.40;;;;;;;;;;6197483;28;20050;-80
2022/01/29 08:52:19;;;;;;;4.75;2.50;;;;;;;;;;6199596;28;20046;-81
2022/01/29 08:55:21;;;;;;;4.57;2.40;;;;;;;;;;6192388;28;20206;-81
2022/01/29 08:58:23;;;;;;;5.22;2.75;;;;;;;;;;6172446;28;20520;-81
2022/01/29 09:01:25;;;;;;;6.72;2.97;;;;;;;;;;6173392;28;20051;-82
2022/01/29 09:04:26;;;;;;;8.27;3.58;;;;;;;;;;6169714;28;20042;-81
2022/01/29 09:07:28;;;;;;;6.10;3.30;;;;;;;;;;6173642;28;20185;-81
2022/01/29 09:10:31;;;;;;;6.65;3.55;;;;;;;;;;6212855;28;20042;-82
2022/01/29 09:13:33;;;;;;;5.40;3.08;;;;;;;;;;6198307;28;20048;-82
2022/01/29 09:16:34;;;;;;;6.80;3.55;;;;;;;;;;6197317;28;20619;-81
2022/01/29 09:19:36;;;;;;;4.85;2.90;;;;;;;;;;6195939;28;20053;-82
2022/01/29 09:22:38;;;;;;;7.18;3.13;;;;;;;;;;6196737;28;20096;-83
2022/01/29 09:25:40;;;;;;;6.93;3.47;;;;;;;;;;6193795;28;20062;-83
2022/01/29 09:28:41;;;;;;;8.15;4.47;;;;;;;;;;6195000;28;20052;-82
2022/01/29 09:31:43;;;;;;;8.13;4.20;;;;;;;;;;6179083;28;20053;-82
2022/01/29 09:34:45;;;;;;;5.15;3.05;;;;;;;;;;6198068;28;20046;-82
2022/01/29 09:37:48;;;;;;;8.33;3.60;;;;;;;;;;6219329;28;20042;-82
2022/01/29 09:40:50;;;;;;;10.23;4.25;;;;;;;;;;6204834;28;20122;-83
2022/01/29 09:43:53;;;;;;;8.45;4.22;;;;;;;;;;6176914;28;20047;-82
2022/01/29 09:46:56;;;;;;;9.65;4.93;;;;;;;;;;6198828;28;20163;-83
2022/01/29 09:49:58;;;;;;;10.32;5.03;;;;;;;;;;6176307;28;20448;-82
2022/01/29 09:53:00;;;;;;;9.75;3.85;;;;;;;;;;6199509;28;20046;-86
2022/01/29 09:56:03;;;;;;;8.27;4.13;;;;;;;;;;6220261;28;20503;-81
2022/01/29 09:59:04;;;;;;;8.47;3.63;;;;;;;;;;6206100;28;20054;-82
2022/01/29 10:02:17;;;;;;;8.13;3.42;;;;;;;;;;6194276;28;20141;-81
2022/01/29 10:05:33;;;;;;;6.65;3.80;;;;;;;;;;6200519;28;20116;-82
2022/01/29 10:08:43;;;;;;;7.40;3.47;;;;;;;;;;6193519;28;20070;-81
2022/01/29 10:11:45;;;;;;;7.38;3.30;;;;;;;;;;6192305;28;20500;-82
2022/01/29 10:15:07;;;;;;;4.72;2.42;;;;;;;;;;6202578;28;20046;-81
2022/01/29 10:18:09;;;;;;;5.63;3.33;;;;;;;;;;6223337;28;20053;-81
2022/01/29 10:21:16;;;;;;;5.57;3.50;;;;;;;;;;6202120;28;20134;-81
2022/01/29 10:24:19;;;;;;;6.15;3.17;;;;;;;;;;6195505;28;20117;-79
2022/01/29 10:27:21;;;;;;;5.22;3.00;;;;;;;;;;6180488;28;20051;-79
2022/01/29 10:30:49;;;;;;;4.53;2.47;;;;;;;;;;6187536;28;20046;-80
2022/01/29 10:33:51;;;;;;;4.68;2.47;;;;;;;;;;6188601;28;20165;-80
2022/01/29 10:37:18;;;;;;;5.07;2.45;;;;;;;;;;6210818;28;20125;-80
2022/01/29 10:40:26;;;;;;;5.38;3.08;;;;;;;;;;6231659;28;20053;-81
2022/01/29 10:43:28;;;;;;;3.25;2.20;;;;;;;;;;6203906;28;20053;-80
2022/01/29 10:46:31;;;;;;;3.83;2.17;;;;;;;;;;6221786;28;20053;-81
2022/01/29 10:49:34;;;;;;;4.75;2.80;;;;;;;;;;6221696;28;20042;-81
2022/01/29 10:52:36;;;;;;;4.72;1.95;;;;;;;;;;6223218;28;20049;-81
2022/01/29 10:55:57;;;;;;;4.28;2.83;;;;;;;;;;6232921;28;20044;-80
2022/01/29 10:59:00;;;;;;;4.40;2.97;;;;;;;;;;6212806;28;20129;-80
2022/01/29 11:02:09;;;;;;;4.35;2.70;;;;;;;;;;6220730;28;20057;-80
2022/01/29 11:05:14;;;;;;;3.20;2.13;;;;;;;;;;6193125;28;20074;-81
2022/01/29 11:08:18;;;;;;;4.28;2.58;;;;;;;;;;6196074;28;20298;-80
2022/01/29 11:11:20;;;;;;;3.10;2.28;;;;;;;;;;6184132;28;20050;-78
2022/01/29 11:14:43;;;;;;;3.55;1.95;;;;;;;;;;6194438;28;20077;-83
2022/01/29 11:17:45;;;;;;;2.65;1.75;;;;;;;;;;6197660;28;20065;-79
2022/01/29 11:20:47;;;;;;;5.47;1.83;;;;;;;;;;6193803;28;20050;-80
2022/01/29 11:23:49;;;;;;;2.05;1.35;;;;;;;;;;6171811;28;20046;-81
2022/01/29 11:26:51;;;;;;;2.30;1.90;;;;;;;;;;6222759;28;20097;-80
2022/01/29 11:29:57;;;;;;;2.22;1.23;;;;;;;;;;6215374;28;20124;-80
2022/01/29 11:33:00;;;;;;;2.38;1.52;;;;;;;;;;6220418;28;20046;-81
2022/01/29 11:36:02;;;;;;;2.10;1.33;;;;;;;;;;6211795;28;20046;-83
2022/01/29 11:39:19;;;;;;;2.88;1.70;;;;;;;;;;6183235;28;20181;-81
2022/01/29 11:42:20;;;;;;;1.70;1.35;;;;;;;;;;6192363;28;20193;-82
2022/01/29 11:45:55;;;;;;;2.97;1.80;;;;;;;;;;6189197;28;20126;-82
2022/01/29 11:48:59;;;;;;;2.65;1.67;;;;;;;;;;6216504;28;20042;-82
2022/01/29 11:52:23;;;;;;;2.78;1.95;;;;;;;;;;6198880;28;20418;-80
2022/01/29 11:55:40;;;;;;;3.95;1.70;;;;;;;;;;6193902;28;20046;-82
2022/01/29 11:58:42;;;;;;;3.25;2.00;;;;;;;;;;6219728;28;20130;-83
2022/01/29 12:01:45;;;;;;;2.45;1.70;;;;;;;;;;6217675;28;20092;-82
2022/01/29 12:04:55;;;;;;;4.70;2.08;;;;;;;;;;6208631;28;20046;-81
2022/01/29 12:08:07;;;;;;;3.70;1.83;;;;;;;;;;6211122;28;20701;-82
2022/01/29 12:11:12;;;;;;;2.80;2.10;;;;;;;;;;6212747;28;20291;-80
2022/01/29 12:14:14;;;;;;;3.47;2.05;;;;;;;;;;6196007;28;20496;-81
2022/01/29 12:17:48;;;;;;;3.55;1.70;;;;;;;;;;6170224;28;20184;-81
2022/01/29 12:20:50;;;;;;;4.28;3.42;;;;;;;;;;6177404;28;20056;-81
2022/01/29 12:23:51;;;;;;;7.07;3.30;;;;;;;;;;6183828;28;20053;-81
2022/01/29 12:26:57;;;;;;;2.78;1.90;;;;;;;;;;6172255;28;20093;-81
2022/01/29 12:29:58;;;;;;;2.63;2.08;;;;;;;;;;6172505;28;20529;-81
2022/01/29 12:33:04;;;;;;;2.53;1.80;;;;;;;;;;6180973;28;20803;-81
2022/01/29 12:36:07;;;;;;;2.83;1.85;;;;;;;;;;6179146;28;20094;-80
2022/01/29 12:39:09;;;;;;;4.00;2.15;;;;;;;;;;6180555;28;20533;-80
2022/01/29 12:45:14;;;;;;;3.97;2.60;;;;;;;;;;6167311;28;20786;-80
2022/01/29 12:48:16;;;;;;;3.28;1.70;;;;;;;;;;6178065;28;20050;-81
2022/01/29 12:51:18;;;;;;;2.53;1.90;;;;;;;;;;6191831;28;20048;-81
2022/01/29 12:54:19;;;;;;;2.42;1.60;;;;;;;;;;6190864;28;20044;-81
2022/01/29 12:57:21;;;;;;;3.10;1.42;;;;;;;;;;6200988;28;20055;-81
2022/01/29 13:00:23;;;;;;;1.55;1.30;;;;;;;;;;6208009;28;20061;-81
2022/01/29 13:03:27;;;;;;;2.45;1.38;;;;;;;;;;6214677;28;20044;-81
2022/01/29 13:06:29;;;;;;;1.75;1.02;;;;;;;;;;6215875;28;20143;-80
2022/01/29 13:09:34;;;;;;;1.67;1.23;;;;;;;;;;6208898;28;20046;-81
2022/01/29 13:12:41;;;;;;;1.73;1.15;;;;;;;;;;6191597;28;20042;-83
2022/01/29 13:15:43;;;;;;;0.88;0.80;;;;;;;;;;6188840;28;20050;-80
2022/01/29 13:18:45;;;;;;;1.52;1.00;;;;;;;;;;6190723;28;20054;-80
2022/01/29 13:21:47;;;;;;;1.10;1.00;;;;;;;;;;6190450;28;20042;-81
2022/01/29 13:24:51;;;;;;;1.77;0.80;;;;;;;;;;6188743;28;20547;-79
2022/01/29 13:28:06;;;;;;;1.08;0.90;;;;;;;;;;6189165;28;20044;-82
2022/01/29 13:31:08;;;;;;;1.85;1.20;;;;;;;;;;6184132;28;20072;-80
2022/01/29 13:34:30;;;;;;;2.95;1.35;;;;;;;;;;6190638;28;20046;-84
2022/01/29 13:37:35;;;;;;;1.55;1.27;;;;;;;;;;6167683;28;21555;-81
2022/01/29 13:40:43;;;;;;;1.40;1.30;;;;;;;;;;6175729;28;20068;-83
2022/01/29 13:43:44;;;;;;;2.83;1.88;;;;;;;;;;6190707;28;20042;-84
2022/01/29 13:47:04;;;;;;;1.67;1.15;;;;;;;;;;6191801;28;20069;-83
2022/01/29 13:50:27;;;;;;;1.60;1.23;;;;;;;;;;6195518;28;20054;-82
2022/01/29 13:53:46;;;;;;;1.60;1.15;;;;;;;;;;6195645;28;20120;-82
2022/01/29 13:56:49;;;;;;;1.77;1.30;;;;;;;;;;6191753;28;20053;-81
2022/01/29 14:00:01;;;;;;;;;;;;;;;;;;6191445;28;20050;-80
2022/01/29 14:03:12;;;;;;;1.58;1.48;;;;;;;;;;6194171;28;19928;-81
2022/01/29 14:06:21;;;;;;;1.63;1.00;;;;;;;;;;6191553;28;20042;-81
2022/01/29 14:09:30;;;;;;;1.35;1.20;;;;;;;;;;6190637;28;20488;-81
2022/01/29 14:12:47;;;;;;;1.95;1.00;;;;;;;;;;6172030;28;20042;-81
2022/01/29 14:15:48;;;;;;;1.05;0.93;;;;;;;;;;6203643;28;20693;-81
2022/01/29 14:18:50;;;;;;;0.90;0.88;;;;;;;;;;6217000;28;20121;-79
2022/01/29 14:21:51;;;;;;;1.33;1.02;;;;;;;;;;6191697;28;20050;-79
2022/01/29 14:24:54;;;;;;;0.75;0.75;;;;;;;;;;6203748;28;20057;-79
2022/01/29 14:27:56;;;;;;;0.70;0.70;;;;;;;;;;6216523;28;20465;-79
2022/01/29 14:30:57;;;;;;;1.00;0.90;;;;;;;;;;6208008;28;20042;-79
2022/01/29 14:34:02;;;;;;;1.67;0.75;;;;;;;;;;6179204;28;20121;-80
2022/01/29 14:37:04;;;;;;;1.65;1.55;;;;;;;;;;6197285;28;20450;-81
2022/01/29 14:40:09;;;;;;;0.80;0.80;;;;;;;;;;6196485;28;20456;-81
2022/01/29 14:43:11;;;;;;;1.17;0.90;;;;;;;;;;6200319;28;20045;-81
2022/01/29 14:46:12;;;;;;;2.00;0.88;;;;;;;;;;6197700;28;20048;-81
2022/01/29 14:49:15;;;;;;;1.10;1.00;;;;;;;;;;6201219;28;20058;-82
2022/01/29 14:52:17;;;;;;;1.20;1.00;;;;;;;;;;6181571;28;20409;-81
2022/01/29 14:55:19;;;;;;;1.20;0.90;;;;;;;;;;6200104;28;20042;-81
2022/01/29 14:58:25;;;;;;;1.10;1.00;;;;;;;;;;6200289;28;20045;-82
2022/01/29 15:01:26;;;;;;;2.15;1.50;;;;;;;;;;6200364;28;20046;-81
2022/01/29 15:04:29;;;;;;;1.17;1.08;;;;;;;;;;6191861;28;20046;-82
2022/01/29 15:07:31;;;;;;;1.98;1.42;;;;;;;;;;6191662;28;20054;-82
2022/01/29 15:10:35;;;;;;;1.27;1.08;;;;;;;;;;6201727;28;20046;-80
2022/01/29 15:13:37;;;;;;;2.10;1.60;;;;;;;;;;6217892;28;20052;-81
2022/01/29 15:16:38;;;;;;;1.33;0.95;;;;;;;;;;6203326;28;20621;-81
2022/01/29 15:19:40;;;;;;;2.58;1.42;;;;;;;;;;6195888;28;20105;-81
2022/01/29 15:22:42;;;;;;;1.52;1.27;;;;;;;;;;6196061;28;20042;-81
2022/01/29 15:25:45;;;;;;;2.80;1.92;;;;;;;;;;6208056;28;20062;-81
2022/01/29 15:28:47;;;;;;;1.45;1.30;;;;;;;;;;6218563;28;20050;-81
2022/01/29 15:31:49;;;;;;;1.55;1.33;;;;;;;;;;6219850;28;20555;-80
2022/01/29 15:34:51;;;;;;;2.60;1.20;;;;;;;;;;6226833;28;20567;-80
2022/01/29 15:37:52;;;;;;;1.80;1.70;;;;;;;;;;6223531;28;20049;-82
2022/01/29 15:40:55;;;;;;;1.48;1.38;;;;;;;;;;6186595;28;20129;-82
2022/01/29 15:43:57;;;;;;;2.30;1.48;;;;;;;;;;6192241;28;20052;-82
2022/01/29 15:46:58;;;;;;;3.38;1.60;;;;;;;;;;6197447;28;20058;-81
2022/01/29 15:50:00;;;;;;;2.38;1.45;;;;;;;;;;6190886;28;20475;-81
2022/01/29 15:53:05;;;;;;;2.25;1.73;;;;;;;;;;6190580;28;20058;-82
2022/01/29 15:56:07;;;;;;;2.50;1.70;;;;;;;;;;6196427;28;20041;-81
2022/01/29 15:59:09;;;;;;;2.88;2.28;;;;;;;;;;6220844;28;20419;-81
2022/01/29 16:02:14;;;;;;;3.17;2.15;;;;;;;;;;6197603;28;20179;-82
2022/01/29 16:05:17;;;;;;;3.03;1.83;;;;;;;;;;6197127;28;20050;-81
2022/01/29 16:08:22;;;;;;;2.35;1.70;;;;;;;;;;6205145;28;20053;-81
2022/01/29 16:11:23;;;;;;;2.05;1.65;;;;;;;;;;6220487;28;20052;-80
2022/01/29 16:14:25;;;;;;;3.13;2.45;;;;;;;;;;6183435;28;20038;-82
2022/01/29 16:17:27;;;;;;;3.10;2.30;;;;;;;;;;6171874;28;20056;-80
2022/01/29 16:20:28;;;;;;;3.50;2.00;;;;;;;;;;6176552;28;20042;-80
2022/01/29 16:23:30;;;;;;;1.42;1.27;;;;;;;;;;6185092;28;20133;-80
2022/01/29 16:26:32;;;;;;;1.55;1.42;;;;;;;;;;6169350;28;20233;-81
2022/01/29 16:29:34;;;;;;;3.50;1.73;;;;;;;;;;6192195;28;20124;-81
2022/01/29 16:32:40;;;;;;;2.40;1.90;;;;;;;;;;6178485;28;20085;-80
2022/01/29 16:35:43;;;;;;;2.30;2.10;;;;;;;;;;6192320;28;20074;-82
2022/01/29 16:39:06;;;;;;;2.40;2.20;;;;;;;;;;6194017;28;20053;-81
2022/01/29 16:42:09;;;;;;;2.92;2.42;;;;;;;;;;6216968;28;20048;-79
2022/01/29 16:45:12;;;;;;;3.70;2.50;;;;;;;;;;6217298;28;20052;-81
2022/01/29 16:48:17;;;;;;;2.47;2.20;;;;;;;;;;6192855;28;20046;-80
2022/01/29 16:51:20;;;;;;;3.47;2.50;;;;;;;;;;6214279;28;20491;-78
2022/01/29 16:54:23;;;;;;;4.05;2.60;;;;;;;;;;6187724;28;20495;-81
2022/01/29 16:57:25;;;;;;;4.85;2.28;;;;;;;;;;6189632;28;20065;-79
2022/01/29 17:00:27;;;;;;;3.25;2.20;;;;;;;;;;6178491;28;20056;-79
2022/01/29 17:03:29;;;;;;;3.45;2.50;;;;;;;;;;6187144;28;20412;-81
2022/01/29 17:06:32;;;;;;;2.40;2.08;;;;;;;;;;6187637;28;20192;-82
2022/01/29 17:09:34;;;;;;;3.38;2.08;;;;;;;;;;6189839;28;20042;-80
2022/01/29 17:12:36;;;;;;;1.75;1.27;;;;;;;;;;6207312;28;20071;-81
2022/01/29 17:15:38;;;;;;;2.35;1.70;;;;;;;;;;6213339;28;20048;-80
2022/01/29 17:18:40;;;;;;;2.13;1.30;;;;;;;;;;6215379;28;20050;-81
2022/01/29 17:21:42;;;;;;;1.20;1.10;;;;;;;;;;6216087;28;20053;-81
2022/01/29 17:24:44;;;;;;;1.38;1.10;;;;;;;;;;6213043;28;20057;-80
2022/01/29 17:27:47;;;;;;;1.60;0.60;;;;;;;;;;6216082;28;20038;-81
2022/01/29 17:30:49;;;;;;;0.60;0.60;;;;;;;;;;6197886;28;20041;-82
2022/01/29 17:33:51;;;;;;;2.00;0.68;;;;;;;;;;6216017;28;20045;-80
2022/01/29 17:36:53;;;;;;;0.60;0.50;;;;;;;;;;6215025;28;20048;-80
2022/01/29 17:39:54;;;;;;;0.45;0.40;;;;;;;;;;6214693;28;20040;-81
2022/01/29 17:42:56;;;;;;;1.73;0.73;;;;;;;;;;6214163;28;20041;-79
2022/01/29 17:45:58;;;;;;;1.00;1.00;;;;;;;;;;6215231;28;20096;-80
2022/01/29 17:49:00;;;;;;;1.48;1.23;;;;;;;;;;6216044;28;20057;-79
2022/01/29 17:52:02;;;;;;;1.30;0.95;;;;;;;;;;6238510;28;20124;-83
2022/01/29 17:55:05;;;;;;;2.08;1.25;;;;;;;;;;6229266;28;20407;-79
2022/01/29 17:58:09;;;;;;;;;;;;;;;;;;6216886;28;20104;-79
2022/01/29 18:01:11;;;;;;;2.90;1.83;;;;;;;;;;6230155;28;19921;-80
2022/01/29 18:04:13;;;;;;;4.43;1.55;;;;;;;;;;6225523;28;20050;-79
2022/01/29 18:07:15;;;;;;;3.92;1.80;;;;;;;;;;6238386;28;20379;-82
2022/01/29 18:10:33;;;;;;;4.55;2.30;;;;;;;;;;6237669;28;20049;-80
2022/01/29 18:13:34;;;;;;;2.53;1.90;;;;;;;;;;6240263;28;20172;-82
2022/01/29 18:16:40;;;;;;;3.45;2.38;;;;;;;;;;6240405;28;20421;-81
2022/01/29 18:19:42;;;;;;;3.83;2.70;;;;;;;;;;6233749;28;20052;-80
2022/01/29 18:22:44;;;;;;;3.60;2.80;;;;;;;;;;6236651;28;20041;-82
2022/01/29 18:25:47;;;;;;;4.28;2.65;;;;;;;;;;6228388;28;20042;-82
2022/01/29 18:28:48;;;;;;;5.40;2.97;;;;;;;;;;6227447;28;20050;-82
2022/01/29 18:31:50;;;;;;;5.18;3.40;;;;;;;;;;6231849;28;20040;-81
2022/01/29 18:34:53;;;;;;;4.63;3.00;;;;;;;;;;6236784;28;20048;-81